createdAt,value
2022-09-13T00:00:35.805Z,100417.56
2022-09-13T00:05:38.072Z,100414.00
2022-09-13T00:10:40.747Z,100395.47
2022-09-13T00:15:46.748Z,100382.41
2022-09-13T00:20:48.365Z,100378.00
2022-09-13T00:25:49.985Z,100378.13
2022-09-13T00:30:52.257Z,100382.50
2022-09-13T00:35:53.873Z,100384.31
2022-09-13T00:40:55.493Z,100365.03
2022-09-13T00:45:57.211Z,100379.09
2022-09-13T00:50:58.906Z,100377.38
2022-09-13T00:56:09.735Z,100370.78
2022-09-13T01:01:12.561Z,100365.56
2022-09-13T01:06:16.873Z,100361.28
2022-09-13T01:11:25.052Z,100347.19
2022-09-13T01:16:26.979Z,100344.53
2022-09-13T01:21:50.310Z,100333.22
2022-09-13T01:26:59.693Z,100316.66
2022-09-13T01:32:36.434Z,100304.78
2022-09-13T01:37:43.800Z,100289.81
2022-09-13T01:42:55.368Z,100282.06
2022-09-13T01:47:58.644Z,100265.09
2022-09-13T01:53:01.220Z,100266.06
2022-09-13T01:58:05.150Z,100261.72
2022-09-13T02:03:36.839Z,100257.25
2022-09-13T02:08:43.833Z,100256.31
2022-09-13T02:13:49.549Z,100262.91
2022-09-13T02:18:53.477Z,100261.34
2022-09-13T02:24:00.493Z,100247.22
2022-09-13T02:29:04.008Z,100244.50
2022-09-13T02:34:09.279Z,100243.59
2022-09-13T02:39:15.398Z,100239.00
2022-09-13T02:44:23.103Z,100237.06
2022-09-13T02:49:29.942Z,100246.66
2022-09-13T02:54:51.739Z,100253.47
2022-09-13T02:59:53.357Z,100255.81
2022-09-13T03:04:55.519Z,100252.84
2022-09-13T03:10:04.837Z,100257.88
2022-09-13T03:15:12.348Z,100261.16
2022-09-13T03:20:24.679Z,100268.22
2022-09-13T03:25:48.311Z,100292.34
2022-09-13T03:30:57.993Z,100289.44
2022-09-13T03:36:10.222Z,100288.88
2022-09-13T03:41:14.706Z,100282.91
2022-09-13T03:46:21.220Z,100262.84
2022-09-13T03:51:22.992Z,100260.31
2022-09-13T03:56:24.645Z,100249.78
2022-09-13T04:01:26.355Z,100232.19
2022-09-13T04:06:28.041Z,100251.50
2022-09-13T04:11:30.145Z,100237.53
2022-09-13T04:16:31.778Z,100228.81
2022-09-13T04:21:33.437Z,100233.09
2022-09-13T04:26:35.618Z,100243.66
2022-09-13T04:31:37.531Z,100239.25
2022-09-13T04:36:39.615Z,100243.63
2022-09-13T04:41:48.227Z,100211.88
2022-09-13T04:46:50.491Z,100211.75
2022-09-13T04:51:52.135Z,100212.53
2022-09-13T04:56:54.602Z,100215.88
2022-09-13T05:01:56.326Z,100209.72
2022-09-13T05:06:58.926Z,100208.75
2022-09-13T05:12:00.573Z,100201.72
2022-09-13T05:17:02.215Z,100211.25
2022-09-13T05:22:03.860Z,100215.47
2022-09-13T05:27:05.668Z,100225.09
2022-09-13T05:32:07.286Z,100231.22
2022-09-13T05:37:08.923Z,100217.03
2022-09-13T05:42:10.521Z,100219.53
2022-09-13T05:47:13.881Z,100212.44
2022-09-13T05:52:15.511Z,100210.47
2022-09-13T05:57:17.187Z,100209.44
2022-09-13T06:02:18.850Z,100198.81
2022-09-13T06:07:20.517Z,100200.59
2022-09-13T06:12:22.148Z,100198.66
2022-09-13T06:17:23.750Z,100193.25
2022-09-13T06:22:25.385Z,100197.50
2022-09-13T06:27:27.006Z,100203.47
2022-09-13T06:32:28.611Z,100205.19
2022-09-13T06:37:30.234Z,100205.06
2022-09-13T06:42:34.670Z,100200.50
2022-09-13T06:47:36.932Z,100186.28
2022-09-13T06:52:38.718Z,100188.75
2022-09-13T06:57:40.337Z,100186.31
2022-09-13T07:02:41.986Z,100187.13
2022-09-13T07:07:43.617Z,100191.25
2022-09-13T07:12:45.429Z,100189.88
2022-09-13T07:17:47.074Z,100191.06
2022-09-13T07:22:48.700Z,100206.44
2022-09-13T07:27:50.333Z,100206.94
2022-09-13T07:32:51.962Z,100209.25
2022-09-13T07:37:53.586Z,100215.16
2022-09-13T07:42:55.191Z,100221.25
2022-09-13T07:47:56.812Z,100222.78
2022-09-13T07:52:58.430Z,100222.41
2022-09-13T07:58:00.319Z,100229.16
2022-09-13T08:03:01.957Z,100225.41
2022-09-13T08:08:03.621Z,100246.31
2022-09-13T08:13:05.285Z,100258.50
2022-09-13T08:18:07.585Z,100248.75
2022-09-13T08:23:09.699Z,100255.84
2022-09-13T08:28:15.524Z,100269.59
2022-09-13T08:33:17.137Z,100259.44
2022-09-13T08:38:19.232Z,100256.97
2022-09-13T08:43:31.468Z,100262.16
2022-09-13T08:48:37.305Z,100253.47
2022-09-13T08:53:44.572Z,100257.72
2022-09-13T08:59:08.889Z,100254.00
2022-09-13T09:04:16.532Z,100260.56
2022-09-13T09:09:21.757Z,100257.75
2022-09-13T09:14:31.129Z,100250.78
2022-09-13T09:20:03.425Z,100247.53
2022-09-13T09:25:05.599Z,100252.94
2022-09-13T09:30:13.533Z,100249.69
2022-09-13T09:35:50.775Z,100259.31
2022-09-13T09:40:52.428Z,100263.56
2022-09-13T09:45:54.110Z,100265.34
2022-09-13T09:50:58.414Z,100260.69
2022-09-13T09:56:12.680Z,100240.69
2022-09-13T10:01:19.606Z,100243.84
2022-09-13T10:06:22.881Z,100249.34
2022-09-13T10:11:26.730Z,100246.03
2022-09-13T10:16:29.823Z,100250.56
2022-09-13T10:21:31.485Z,100253.19
2022-09-13T10:26:33.152Z,100240.00
2022-09-13T10:31:36.809Z,100244.53
2022-09-13T10:36:53.992Z,100261.16
2022-09-13T10:42:04.020Z,100248.09
2022-09-13T10:47:07.500Z,100241.72
2022-09-13T10:52:27.543Z,100238.59
2022-09-13T10:57:36.525Z,100248.00
2022-09-13T11:02:59.731Z,100240.88
2022-09-13T11:08:11.324Z,100242.38
2022-09-13T11:13:21.889Z,100245.81
2022-09-13T11:18:32.462Z,100244.97
2022-09-13T11:23:43.110Z,100244.91
2022-09-13T11:29:21.964Z,100235.88
2022-09-13T11:34:37.637Z,100239.13
2022-09-13T11:39:46.298Z,100240.00
2022-09-13T11:45:01.529Z,100235.50
2022-09-13T11:50:18.268Z,100236.63
2022-09-13T11:55:38.191Z,100233.38
2022-09-13T12:00:57.337Z,100224.22
2022-09-13T12:06:12.598Z,100229.84
2022-09-13T12:11:23.133Z,100225.63
2022-09-13T12:16:38.857Z,100228.50
2022-09-13T12:21:41.067Z,100212.91
2022-09-13T12:27:08.995Z,100211.34
2022-09-13T12:32:10.692Z,100214.13
2022-09-13T12:37:18.333Z,100203.50
2022-09-13T12:42:25.539Z,100200.59
2022-09-13T12:47:51.728Z,100200.16
2022-09-13T12:53:17.503Z,100196.59
2022-09-13T12:58:38.096Z,100194.94
2022-09-13T13:03:46.507Z,100201.03
2022-09-13T13:08:52.694Z,100196.16
2022-09-13T13:14:00.550Z,100186.34
2022-09-13T13:19:06.618Z,100181.88
2022-09-13T13:24:17.350Z,100175.09
2022-09-13T13:29:29.921Z,100189.69
2022-09-13T13:34:43.595Z,100187.84
2022-09-13T13:39:48.858Z,100183.13
2022-09-13T13:44:53.380Z,100188.28
2022-09-13T13:50:16.336Z,100173.59
2022-09-13T13:55:44.574Z,100169.44
2022-09-13T14:00:48.162Z,100173.53
2022-09-13T14:06:27.329Z,100179.00
2022-09-13T14:11:47.783Z,100177.72
2022-09-13T14:17:20.125Z,100156.06
2022-09-13T14:22:25.225Z,100175.84
2022-09-13T14:27:29.680Z,100164.47
2022-09-13T14:32:41.859Z,100164.84
2022-09-13T14:37:43.706Z,100165.75
2022-09-13T14:42:47.153Z,100153.25
2022-09-13T14:47:55.982Z,100148.31
2022-09-13T14:53:02.189Z,100146.34
2022-09-13T14:58:07.979Z,100150.38
2022-09-13T15:03:14.618Z,100136.97
2022-09-13T15:08:25.856Z,100150.81
2022-09-13T15:13:27.463Z,100146.13
2022-09-13T15:18:36.631Z,100150.56
2022-09-13T15:23:40.071Z,100148.72
2022-09-13T15:28:41.503Z,100149.84
2022-09-13T15:33:47.420Z,100153.09
2022-09-13T15:39:09.068Z,100136.16
2022-09-13T15:44:10.688Z,100136.72
2022-09-13T15:49:15.443Z,100130.22
2022-09-13T15:54:17.326Z,100137.72
2022-09-13T15:59:20.942Z,100142.56
2022-09-13T16:04:22.915Z,100136.13
2022-09-13T16:09:24.887Z,100135.94
2022-09-13T16:14:26.497Z,100139.19
2022-09-13T16:19:28.307Z,100153.72
2022-09-13T16:24:29.990Z,100153.13
2022-09-13T16:29:31.597Z,100150.19
2022-09-13T16:34:33.225Z,100158.56
2022-09-13T16:39:34.833Z,100146.91
2022-09-13T16:44:36.679Z,100145.16
2022-09-13T16:49:38.311Z,100147.16
2022-09-13T16:54:40.614Z,100141.03
2022-09-13T16:59:42.430Z,100146.84
2022-09-13T17:04:44.133Z,100149.53
2022-09-13T17:09:45.771Z,100146.81
2022-09-13T17:14:47.516Z,100152.19
2022-09-13T17:19:49.990Z,100146.78
2022-09-13T17:24:51.625Z,100142.81
2022-09-13T17:29:53.643Z,100152.31
2022-09-13T17:34:55.300Z,100145.00
2022-09-13T17:39:56.990Z,100147.34
2022-09-13T17:44:58.682Z,100139.38
2022-09-13T17:50:00.317Z,100155.72
2022-09-13T17:55:02.637Z,100152.09
2022-09-13T18:00:05.768Z,100157.91
2022-09-13T18:05:12.988Z,100162.03
2022-09-13T18:10:40.342Z,100175.75
2022-09-13T18:15:37.139Z,100165.53
2022-09-13T18:20:40.808Z,100168.00
2022-09-13T18:25:42.642Z,100171.84
2022-09-13T18:30:51.871Z,100175.66
2022-09-13T18:36:01.172Z,100178.59
2022-09-13T18:41:10.457Z,100177.13
2022-09-13T18:46:14.404Z,100186.16
2022-09-13T18:51:18.494Z,100184.84
2022-09-13T18:56:20.641Z,100181.53
2022-09-13T19:01:28.446Z,100198.53
2022-09-13T19:06:32.341Z,100197.22
2022-09-13T19:11:53.325Z,100196.72
2022-09-13T19:16:56.414Z,100200.50
2022-09-13T19:21:58.093Z,100206.78
2022-09-13T19:27:01.430Z,100208.97
2022-09-13T19:32:03.253Z,100219.50
2022-09-13T19:37:04.922Z,100217.09
2022-09-13T19:42:08.873Z,100218.19
2022-09-13T19:52:36.257Z,100226.44
2022-09-13T19:57:41.869Z,100227.50
2022-09-13T20:02:47.916Z,100221.56
2022-09-13T20:07:52.546Z,100229.88
2022-09-13T20:12:54.971Z,100214.31
2022-09-13T20:18:02.199Z,100205.69
2022-09-13T20:23:03.958Z,100213.75
2022-09-13T20:28:05.712Z,100202.53
2022-09-13T20:33:07.368Z,100205.09
2022-09-13T20:38:30.347Z,100203.97
2022-09-13T20:43:33.530Z,100196.13
2022-09-13T20:48:36.483Z,100195.25
2022-09-13T20:53:39.618Z,100201.59
2022-09-13T20:58:44.373Z,100199.94
2022-09-13T21:03:49.251Z,100198.31
2022-09-13T21:08:52.113Z,100209.84
2022-09-13T21:13:55.567Z,100213.41
2022-09-13T21:18:57.270Z,100215.41
2022-09-13T21:24:00.406Z,100223.47
2022-09-13T21:29:02.151Z,100220.06
2022-09-13T21:34:05.560Z,100220.25
2022-09-13T21:39:07.181Z,100208.13
2022-09-13T21:44:09.173Z,100207.47
2022-09-13T21:49:12.488Z,100218.13
2022-09-13T21:54:18.355Z,100216.41
2022-09-13T21:59:20.672Z,100220.09
2022-09-13T22:04:25.613Z,100219.28
2022-09-13T22:09:28.657Z,100215.81
2022-09-13T22:14:30.276Z,100215.91
2022-09-13T22:19:32.153Z,100206.41
2022-09-13T22:24:35.693Z,100208.31
2022-09-13T22:29:37.377Z,100207.53
2022-09-13T22:34:40.722Z,100205.94
2022-09-13T22:39:42.417Z,100213.81
2022-09-13T22:44:44.055Z,100200.81
2022-09-13T22:49:45.654Z,100201.66
2022-09-13T22:54:50.717Z,100206.97
2022-09-13T22:59:52.653Z,100195.75
2022-09-13T23:04:54.517Z,100211.56
2022-09-13T23:09:56.244Z,100207.31
2022-09-13T23:14:57.859Z,100204.06
2022-09-13T23:19:59.453Z,100204.94
2022-09-13T23:25:01.063Z,100189.41
2022-09-13T23:30:02.695Z,100188.75
2022-09-13T23:35:04.491Z,100191.25
2022-09-13T23:40:06.637Z,100186.22
2022-09-13T23:45:08.596Z,100188.06
2022-09-13T23:50:10.269Z,100184.63
2022-09-13T23:55:14.242Z,100174.25
